sensor_id;sensor_type;location;lat;lon;timestamp;temperature;humidity
22532;DHT22;11432;46.924;7.114;2023-05-10T00:02:06;12.90;99.90
22532;DHT22;11432;46.924;7.114;2023-05-10T00:04:32;12.80;99.90
22532;DHT22;11432;46.924;7.114;2023-05-10T00:06:58;12.90;99.90
22532;DHT22;11432;46.924;7.114;2023-05-10T00:09:23;12.90;99.90
22532;DHT22;11432;46.924;7.114;2023-05-10T00:11:49;13.00;99.90
22532;DHT22;11432;46.924;7.114;2023-05-10T00:14:15;12.90;99.90
22532;DHT22;11432;46.924;7.114;2023-05-10T00:16:40;13.00;99.90
22532;DHT22;11432;46.924;7.114;2023-05-10T00:19:06;12.90;99.90
22532;DHT22;11432;46.924;7.114;2023-05-10T00:21:32;12.90;99.90
22532;DHT22;11432;46.924;7.114;2023-05-10T00:23:59;12.90;99.90
22532;DHT22;11432;46.924;7.114;2023-05-10T00:26:24;12.90;99.90
22532;DHT22;11432;46.924;7.114;2023-05-10T00:28:50;12.90;99.90
22532;DHT22;11432;46.924;7.114;2023-05-10T00:31:16;12.90;99.90
22532;DHT22;11432;46.924;7.114;2023-05-10T00:33:41;12.90;99.90
22532;DHT22;11432;46.924;7.114;2023-05-10T00:36:07;12.90;99.90
22532;DHT22;11432;46.924;7.114;2023-05-10T00:38:33;12.90;99.90
22532;DHT22;11432;46.924;7.114;2023-05-10T00:40:59;12.90;99.90
22532;DHT22;11432;46.924;7.114;2023-05-10T00:43:24;12.90;99.90
22532;DHT22;11432;46.924;7.114;2023-05-10T00:45:50;12.90;99.90
22532;DHT22;11432;46.924;7.114;2023-05-10T00:48:16;12.90;99.90
22532;DHT22;11432;46.924;7.114;2023-05-10T00:50:41;12.90;99.90
22532;DHT22;11432;46.924;7.114;2023-05-10T00:53:07;13.00;99.90
22532;DHT22;11432;46.924;7.114;2023-05-10T00:55:33;13.00;99.90
22532;DHT22;11432;46.924;7.114;2023-05-10T00:57:59;12.90;99.90
22532;DHT22;11432;46.924;7.114;2023-05-10T01:00:24;13.00;99.90
22532;DHT22;11432;46.924;7.114;2023-05-10T01:02:50;13.00;99.90
22532;DHT22;11432;46.924;7.114;2023-05-10T01:05:17;13.00;99.90
22532;DHT22;11432;46.924;7.114;2023-05-10T01:07:43;13.00;99.90
22532;DHT22;11432;46.924;7.114;2023-05-10T01:10:09;12.90;99.90
22532;DHT22;11432;46.924;7.114;2023-05-10T01:12:37;12.90;99.90
22532;DHT22;11432;46.924;7.114;2023-05-10T01:15:05;12.90;99.90
22532;DHT22;11432;46.924;7.114;2023-05-10T01:17:32;12.80;99.90
22532;DHT22;11432;46.924;7.114;2023-05-10T01:19:58;12.90;99.90
22532;DHT22;11432;46.924;7.114;2023-05-10T01:33:28;12.80;99.90
22532;DHT22;11432;46.924;7.114;2023-05-10T01:38:57;12.70;99.90
22532;DHT22;11432;46.924;7.114;2023-05-10T01:41:49;12.80;99.90
22532;DHT22;11432;46.924;7.114;2023-05-10T01:44:37;12.70;99.90
22532;DHT22;11432;46.924;7.114;2023-05-10T01:47:07;12.70;99.90
22532;DHT22;11432;46.924;7.114;2023-05-10T01:49:45;12.70;99.90
22532;DHT22;11432;46.924;7.114;2023-05-10T01:52:15;12.70;99.90
22532;DHT22;11432;46.924;7.114;2023-05-10T01:54:55;12.80;99.90
22532;DHT22;11432;46.924;7.114;2023-05-10T01:57:22;12.80;99.90
22532;DHT22;11432;46.924;7.114;2023-05-10T01:59:51;12.80;99.90
22532;DHT22;11432;46.924;7.114;2023-05-10T02:02:20;12.70;99.90
22532;DHT22;11432;46.924;7.114;2023-05-10T02:04:47;12.70;99.90
22532;DHT22;11432;46.924;7.114;2023-05-10T02:07:14;12.70;99.90
22532;DHT22;11432;46.924;7.114;2023-05-10T02:09:40;12.70;99.90
22532;DHT22;11432;46.924;7.114;2023-05-10T02:12:09;12.70;99.90
22532;DHT22;11432;46.924;7.114;2023-05-10T02:14:37;12.60;99.90
22532;DHT22;11432;46.924;7.114;2023-05-10T02:17:05;12.60;99.90
22532;DHT22;11432;46.924;7.114;2023-05-10T02:19:33;12.50;99.90
22532;DHT22;11432;46.924;7.114;2023-05-10T02:22:00;12.50;99.90
22532;DHT22;11432;46.924;7.114;2023-05-10T02:24:28;12.50;99.90
22532;DHT22;11432;46.924;7.114;2023-05-10T02:26:54;12.50;99.90
22532;DHT22;11432;46.924;7.114;2023-05-10T02:29:24;12.40;99.90
22532;DHT22;11432;46.924;7.114;2023-05-10T02:31:55;12.40;99.90
22532;DHT22;11432;46.924;7.114;2023-05-10T02:34:26;12.30;99.90
22532;DHT22;11432;46.924;7.114;2023-05-10T02:36:53;12.20;99.90
22532;DHT22;11432;46.924;7.114;2023-05-10T02:39:20;12.20;99.90
22532;DHT22;11432;46.924;7.114;2023-05-10T02:41:48;12.20;99.90
22532;DHT22;11432;46.924;7.114;2023-05-10T02:44:19;12.20;99.90
22532;DHT22;11432;46.924;7.114;2023-05-10T02:46:45;12.20;99.90
22532;DHT22;11432;46.924;7.114;2023-05-10T02:49:11;12.20;99.90
22532;DHT22;11432;46.924;7.114;2023-05-10T02:51:40;12.20;99.90
22532;DHT22;11432;46.924;7.114;2023-05-10T02:54:14;12.20;99.90
22532;DHT22;11432;46.924;7.114;2023-05-10T02:56:53;12.20;99.90
22532;DHT22;11432;46.924;7.114;2023-05-10T02:59:21;12.20;99.90
22532;DHT22;11432;46.924;7.114;2023-05-10T03:01:47;12.20;99.90
22532;DHT22;11432;46.924;7.114;2023-05-10T03:04:13;12.20;99.90
22532;DHT22;11432;46.924;7.114;2023-05-10T03:06:39;12.20;99.90
22532;DHT22;11432;46.924;7.114;2023-05-10T03:09:04;12.20;99.90
22532;DHT22;11432;46.924;7.114;2023-05-10T03:14:55;12.20;99.90
22532;DHT22;11432;46.924;7.114;2023-05-10T03:17:29;12.20;99.90
22532;DHT22;11432;46.924;7.114;2023-05-10T03:19:58;12.20;99.90
22532;DHT22;11432;46.924;7.114;2023-05-10T03:22:31;12.20;99.90
22532;DHT22;11432;46.924;7.114;2023-05-10T03:24:58;12.20;99.90
22532;DHT22;11432;46.924;7.114;2023-05-10T03:27:26;12.20;99.90
22532;DHT22;11432;46.924;7.114;2023-05-10T03:29:53;12.20;99.90
22532;DHT22;11432;46.924;7.114;2023-05-10T03:32:20;12.10;99.90
22532;DHT22;11432;46.924;7.114;2023-05-10T03:34:45;12.10;99.90
22532;DHT22;11432;46.924;7.114;2023-05-10T03:37:11;12.00;99.90
22532;DHT22;11432;46.924;7.114;2023-05-10T03:39:36;12.00;99.90
22532;DHT22;11432;46.924;7.114;2023-05-10T03:42:02;12.00;99.90
22532;DHT22;11432;46.924;7.114;2023-05-10T03:44:28;12.10;99.90
22532;DHT22;11432;46.924;7.114;2023-05-10T03:46:53;12.10;99.90
22532;DHT22;11432;46.924;7.114;2023-05-10T03:49:19;12.10;99.90
22532;DHT22;11432;46.924;7.114;2023-05-10T03:51:45;12.10;99.90
22532;DHT22;11432;46.924;7.114;2023-05-10T03:54:10;12.10;99.90
22532;DHT22;11432;46.924;7.114;2023-05-10T03:56:36;12.10;99.90
22532;DHT22;11432;46.924;7.114;2023-05-10T03:59:01;12.10;99.90
22532;DHT22;11432;46.924;7.114;2023-05-10T04:01:33;12.10;99.90
22532;DHT22;11432;46.924;7.114;2023-05-10T04:03:58;12.10;99.90
22532;DHT22;11432;46.924;7.114;2023-05-10T04:06:24;12.10;99.90
22532;DHT22;11432;46.924;7.114;2023-05-10T04:08:49;12.10;99.90
22532;DHT22;11432;46.924;7.114;2023-05-10T04:11:15;12.10;99.90
22532;DHT22;11432;46.924;7.114;2023-05-10T04:13:41;12.10;99.90
22532;DHT22;11432;46.924;7.114;2023-05-10T04:16:06;12.00;99.90
22532;DHT22;11432;46.924;7.114;2023-05-10T04:18:32;12.10;99.90
22532;DHT22;11432;46.924;7.114;2023-05-10T04:20:58;12.10;99.90
22532;DHT22;11432;46.924;7.114;2023-05-10T04:23:23;12.10;99.90
22532;DHT22;11432;46.924;7.114;2023-05-10T04:25:49;12.20;99.90
22532;DHT22;11432;46.924;7.114;2023-05-10T04:28:14;12.20;99.90
22532;DHT22;11432;46.924;7.114;2023-05-10T04:30:40;12.10;99.90
22532;DHT22;11432;46.924;7.114;2023-05-10T04:33:06;12.00;99.90
22532;DHT22;11432;46.924;7.114;2023-05-10T04:35:32;12.00;99.90
22532;DHT22;11432;46.924;7.114;2023-05-10T04:37:57;11.80;99.90
22532;DHT22;11432;46.924;7.114;2023-05-10T04:40:23;11.80;99.90
22532;DHT22;11432;46.924;7.114;2023-05-10T04:42:49;11.70;99.90
22532;DHT22;11432;46.924;7.114;2023-05-10T04:45:14;11.80;99.90
22532;DHT22;11432;46.924;7.114;2023-05-10T04:47:40;11.70;99.90
22532;DHT22;11432;46.924;7.114;2023-05-10T04:50:07;11.70;99.90
22532;DHT22;11432;46.924;7.114;2023-05-10T04:52:32;11.60;99.90
22532;DHT22;11432;46.924;7.114;2023-05-10T04:54:58;11.60;99.90
22532;DHT22;11432;46.924;7.114;2023-05-10T04:57:24;11.60;99.90
22532;DHT22;11432;46.924;7.114;2023-05-10T04:59:49;11.60;99.90
22532;DHT22;11432;46.924;7.114;2023-05-10T05:02:15;11.50;99.90
22532;DHT22;11432;46.924;7.114;2023-05-10T05:04:40;11.50;99.90
22532;DHT22;11432;46.924;7.114;2023-05-10T05:07:06;11.40;99.90
22532;DHT22;11432;46.924;7.114;2023-05-10T05:09:31;11.50;99.90
22532;DHT22;11432;46.924;7.114;2023-05-10T05:11:58;11.40;99.90
22532;DHT22;11432;46.924;7.114;2023-05-10T05:14:23;11.30;99.90
22532;DHT22;11432;46.924;7.114;2023-05-10T05:16:51;11.20;99.90
22532;DHT22;11432;46.924;7.114;2023-05-10T05:19:16;11.20;99.90
22532;DHT22;11432;46.924;7.114;2023-05-10T05:21:42;11.10;99.90
22532;DHT22;11432;46.924;7.114;2023-05-10T05:24:08;11.20;99.90
22532;DHT22;11432;46.924;7.114;2023-05-10T05:26:34;11.20;99.90
22532;DHT22;11432;46.924;7.114;2023-05-10T05:28:59;11.20;99.90
22532;DHT22;11432;46.924;7.114;2023-05-10T05:31:25;11.20;99.90
22532;DHT22;11432;46.924;7.114;2023-05-10T05:33:51;11.20;99.90
22532;DHT22;11432;46.924;7.114;2023-05-10T05:36:16;11.30;99.90
22532;DHT22;11432;46.924;7.114;2023-05-10T05:38:42;11.20;99.90
22532;DHT22;11432;46.924;7.114;2023-05-10T05:41:08;11.30;99.90
22532;DHT22;11432;46.924;7.114;2023-05-10T05:43:34;11.30;99.90
22532;DHT22;11432;46.924;7.114;2023-05-10T05:46:45;11.40;99.90
22532;DHT22;11432;46.924;7.114;2023-05-10T05:49:10;11.40;99.90
22532;DHT22;11432;46.924;7.114;2023-05-10T05:51:36;11.40;99.90
22532;DHT22;11432;46.924;7.114;2023-05-10T05:54:02;11.50;99.90
22532;DHT22;11432;46.924;7.114;2023-05-10T05:56:29;11.50;99.90
22532;DHT22;11432;46.924;7.114;2023-05-10T05:58:55;11.70;99.90
22532;DHT22;11432;46.924;7.114;2023-05-10T06:01:20;11.80;99.90
22532;DHT22;11432;46.924;7.114;2023-05-10T06:03:46;11.80;99.90
22532;DHT22;11432;46.924;7.114;2023-05-10T06:06:12;12.00;99.90
22532;DHT22;11432;46.924;7.114;2023-05-10T06:08:38;12.10;99.90
22532;DHT22;11432;46.924;7.114;2023-05-10T06:11:03;12.30;99.90
22532;DHT22;11432;46.924;7.114;2023-05-10T06:13:29;12.30;99.90
22532;DHT22;11432;46.924;7.114;2023-05-10T06:15:58;12.40;99.90
22532;DHT22;11432;46.924;7.114;2023-05-10T06:18:24;12.60;99.90
22532;DHT22;11432;46.924;7.114;2023-05-10T06:20:50;12.90;99.90
22532;DHT22;11432;46.924;7.114;2023-05-10T06:23:15;13.10;99.90
22532;DHT22;11432;46.924;7.114;2023-05-10T06:25:41;12.90;99.90
22532;DHT22;11432;46.924;7.114;2023-05-10T06:28:07;12.90;99.90
22532;DHT22;11432;46.924;7.114;2023-05-10T06:30:32;12.90;99.90
22532;DHT22;11432;46.924;7.114;2023-05-10T06:32:58;12.90;99.90
22532;DHT22;11432;46.924;7.114;2023-05-10T06:35:24;12.90;99.90
22532;DHT22;11432;46.924;7.114;2023-05-10T06:37:50;12.70;99.90
22532;DHT22;11432;46.924;7.114;2023-05-10T06:40:16;12.60;99.90
22532;DHT22;11432;46.924;7.114;2023-05-10T06:42:42;12.50;99.90
22532;DHT22;11432;46.924;7.114;2023-05-10T06:45:10;12.40;99.90
22532;DHT22;11432;46.924;7.114;2023-05-10T06:47:36;12.40;99.90
22532;DHT22;11432;46.924;7.114;2023-05-10T06:50:01;12.50;99.90
22532;DHT22;11432;46.924;7.114;2023-05-10T06:52:27;12.60;99.90
22532;DHT22;11432;46.924;7.114;2023-05-10T06:54:52;12.70;99.90
22532;DHT22;11432;46.924;7.114;2023-05-10T06:57:18;12.70;99.90
22532;DHT22;11432;46.924;7.114;2023-05-10T06:59:44;12.70;99.90
22532;DHT22;11432;46.924;7.114;2023-05-10T07:02:10;12.70;99.90
22532;DHT22;11432;46.924;7.114;2023-05-10T07:04:35;12.80;99.90
22532;DHT22;11432;46.924;7.114;2023-05-10T07:07:01;12.80;99.90
22532;DHT22;11432;46.924;7.114;2023-05-10T07:09:26;12.90;99.90
22532;DHT22;11432;46.924;7.114;2023-05-10T07:11:52;12.80;99.90
22532;DHT22;11432;46.924;7.114;2023-05-10T07:14:18;12.80;99.90
22532;DHT22;11432;46.924;7.114;2023-05-10T07:16:43;12.80;99.90
22532;DHT22;11432;46.924;7.114;2023-05-10T07:19:09;12.70;99.90
22532;DHT22;11432;46.924;7.114;2023-05-10T07:21:36;12.70;99.90
22532;DHT22;11432;46.924;7.114;2023-05-10T07:24:01;12.60;99.90
22532;DHT22;11432;46.924;7.114;2023-05-10T07:26:27;12.60;99.90
22532;DHT22;11432;46.924;7.114;2023-05-10T07:28:52;12.70;99.90
22532;DHT22;11432;46.924;7.114;2023-05-10T07:31:18;12.70;99.90
22532;DHT22;11432;46.924;7.114;2023-05-10T07:33:44;12.90;99.90
22532;DHT22;11432;46.924;7.114;2023-05-10T07:36:09;13.10;99.90
22532;DHT22;11432;46.924;7.114;2023-05-10T07:38:35;13.30;99.90
22532;DHT22;11432;46.924;7.114;2023-05-10T07:41:00;13.40;99.90
22532;DHT22;11432;46.924;7.114;2023-05-10T07:43:26;13.50;99.90
22532;DHT22;11432;46.924;7.114;2023-05-10T07:45:52;13.50;99.90
22532;DHT22;11432;46.924;7.114;2023-05-10T07:48:17;13.60;92.90
22532;DHT22;11432;46.924;7.114;2023-05-10T07:50:43;13.50;1.00
22532;DHT22;11432;46.924;7.114;2023-05-10T07:53:09;13.40;1.00
22532;DHT22;11432;46.924;7.114;2023-05-10T07:55:35;13.20;1.00
22532;DHT22;11432;46.924;7.114;2023-05-10T07:58:00;13.10;1.00
22532;DHT22;11432;46.924;7.114;2023-05-10T08:00:26;13.00;35.40
22532;DHT22;11432;46.924;7.114;2023-05-10T08:02:52;13.10;1.40
22532;DHT22;11432;46.924;7.114;2023-05-10T08:05:18;13.10;25.80
22532;DHT22;11432;46.924;7.114;2023-05-10T08:07:44;13.30;1.00
22532;DHT22;11432;46.924;7.114;2023-05-10T08:10:11;13.60;44.70
22532;DHT22;11432;46.924;7.114;2023-05-10T08:12:37;13.70;43.40
22532;DHT22;11432;46.924;7.114;2023-05-10T08:15:03;13.60;47.50
22532;DHT22;11432;46.924;7.114;2023-05-10T08:17:29;13.60;52.60
22532;DHT22;11432;46.924;7.114;2023-05-10T08:19:55;13.60;58.80
22532;DHT22;11432;46.924;7.114;2023-05-10T08:22:20;13.50;48.20
22532;DHT22;11432;46.924;7.114;2023-05-10T08:24:46;13.40;1.00
22532;DHT22;11432;46.924;7.114;2023-05-10T08:27:11;13.50;1.00
22532;DHT22;11432;46.924;7.114;2023-05-10T08:29:37;13.50;1.00
22532;DHT22;11432;46.924;7.114;2023-05-10T08:32:03;13.80;1.00
22532;DHT22;11432;46.924;7.114;2023-05-10T08:34:28;14.30;40.40
22532;DHT22;11432;46.924;7.114;2023-05-10T08:36:56;14.60;66.00
22532;DHT22;11432;46.924;7.114;2023-05-10T08:39:22;15.00;28.70
22532;DHT22;11432;46.924;7.114;2023-05-10T08:41:51;15.10;65.80
22532;DHT22;11432;46.924;7.114;2023-05-10T08:44:19;14.70;79.10
22532;DHT22;11432;46.924;7.114;2023-05-10T08:46:46;14.60;58.20
22532;DHT22;11432;46.924;7.114;2023-05-10T08:49:16;14.40;30.10
22532;DHT22;11432;46.924;7.114;2023-05-10T08:51:49;14.10;13.30
22532;DHT22;11432;46.924;7.114;2023-05-10T08:54:16;14.10;12.30
22532;DHT22;11432;46.924;7.114;2023-05-10T08:56:42;14.00;1.00
22532;DHT22;11432;46.924;7.114;2023-05-10T08:59:07;13.90;8.50
22532;DHT22;11432;46.924;7.114;2023-05-10T09:01:35;14.20;1.00
22532;DHT22;11432;46.924;7.114;2023-05-10T09:04:01;14.60;1.00
22532;DHT22;11432;46.924;7.114;2023-05-10T09:06:28;15.00;1.00
22532;DHT22;11432;46.924;7.114;2023-05-10T09:08:54;14.80;6.50
22532;DHT22;11432;46.924;7.114;2023-05-10T09:11:20;14.60;15.60
22532;DHT22;11432;46.924;7.114;2023-05-10T09:13:48;14.70;13.70
22532;DHT22;11432;46.924;7.114;2023-05-10T09:16:15;14.90;15.90
22532;DHT22;11432;46.924;7.114;2023-05-10T09:18:41;15.10;13.00
22532;DHT22;11432;46.924;7.114;2023-05-10T09:21:06;14.90;23.10
22532;DHT22;11432;46.924;7.114;2023-05-10T09:23:32;15.00;33.50
22532;DHT22;11432;46.924;7.114;2023-05-10T09:26:07;14.90;79.70
22532;DHT22;11432;46.924;7.114;2023-05-10T09:28:34;14.80;77.10
22532;DHT22;11432;46.924;7.114;2023-05-10T09:31:00;14.60;72.30
22532;DHT22;11432;46.924;7.114;2023-05-10T09:33:26;14.60;66.40
22532;DHT22;11432;46.924;7.114;2023-05-10T09:35:52;14.60;79.20
22532;DHT22;11432;46.924;7.114;2023-05-10T09:38:17;14.60;74.50
22532;DHT22;11432;46.924;7.114;2023-05-10T09:40:53;14.60;70.00
22532;DHT22;11432;46.924;7.114;2023-05-10T09:43:20;14.80;71.10
22532;DHT22;11432;46.924;7.114;2023-05-10T09:45:48;14.80;71.20
22532;DHT22;11432;46.924;7.114;2023-05-10T09:48:15;14.70;86.60
22532;DHT22;11432;46.924;7.114;2023-05-10T09:50:41;14.70;77.90
22532;DHT22;11432;46.924;7.114;2023-05-10T09:53:07;15.00;88.50
22532;DHT22;11432;46.924;7.114;2023-05-10T09:58:01;15.40;99.90
22532;DHT22;11432;46.924;7.114;2023-05-10T10:00:28;15.40;99.90
22532;DHT22;11432;46.924;7.114;2023-05-10T10:02:58;15.50;99.90
22532;DHT22;11432;46.924;7.114;2023-05-10T10:05:34;15.70;99.90
22532;DHT22;11432;46.924;7.114;2023-05-10T10:08:02;15.40;99.90
22532;DHT22;11432;46.924;7.114;2023-05-10T10:10:28;15.00;99.90
22532;DHT22;11432;46.924;7.114;2023-05-10T10:12:55;14.70;99.90
22532;DHT22;11432;46.924;7.114;2023-05-10T10:15:22;14.80;99.90
22532;DHT22;11432;46.924;7.114;2023-05-10T10:17:48;14.90;99.90
22532;DHT22;11432;46.924;7.114;2023-05-10T10:20:15;14.90;99.90
22532;DHT22;11432;46.924;7.114;2023-05-10T10:22:40;15.00;99.90
22532;DHT22;11432;46.924;7.114;2023-05-10T10:25:07;14.90;99.90
22532;DHT22;11432;46.924;7.114;2023-05-10T10:28:16;15.20;99.90
22532;DHT22;11432;46.924;7.114;2023-05-10T10:30:48;15.40;99.90
22532;DHT22;11432;46.924;7.114;2023-05-10T10:36:06;15.30;99.90
22532;DHT22;11432;46.924;7.114;2023-05-10T10:38:55;15.20;99.90
22532;DHT22;11432;46.924;7.114;2023-05-10T10:47:10;15.40;99.90
22532;DHT22;11432;46.924;7.114;2023-05-10T10:49:50;15.50;99.90
22532;DHT22;11432;46.924;7.114;2023-05-10T10:52:45;15.40;99.90
22532;DHT22;11432;46.924;7.114;2023-05-10T10:55:14;15.40;99.90
22532;DHT22;11432;46.924;7.114;2023-05-10T10:57:48;15.60;99.90
22532;DHT22;11432;46.924;7.114;2023-05-10T11:00:35;15.80;99.90
22532;DHT22;11432;46.924;7.114;2023-05-10T11:03:10;15.70;99.90
22532;DHT22;11432;46.924;7.114;2023-05-10T11:05:43;15.90;99.90
22532;DHT22;11432;46.924;7.114;2023-05-10T11:11:08;16.10;99.90
22532;DHT22;11432;46.924;7.114;2023-05-10T11:13:38;16.00;99.90
22532;DHT22;11432;46.924;7.114;2023-05-10T11:16:23;16.00;99.90
22532;DHT22;11432;46.924;7.114;2023-05-10T11:18:58;16.50;99.90
22532;DHT22;11432;46.924;7.114;2023-05-10T11:21:24;16.70;99.90
22532;DHT22;11432;46.924;7.114;2023-05-10T11:23:52;16.60;99.90
22532;DHT22;11432;46.924;7.114;2023-05-10T11:26:24;16.60;99.90
22532;DHT22;11432;46.924;7.114;2023-05-10T11:28:54;16.70;99.90
22532;DHT22;11432;46.924;7.114;2023-05-10T11:31:21;17.10;99.90
22532;DHT22;11432;46.924;7.114;2023-05-10T11:33:49;17.50;99.90
22532;DHT22;11432;46.924;7.114;2023-05-10T11:36:29;17.50;99.90
22532;DHT22;11432;46.924;7.114;2023-05-10T11:38:57;17.30;99.90
22532;DHT22;11432;46.924;7.114;2023-05-10T11:41:24;17.60;99.90
22532;DHT22;11432;46.924;7.114;2023-05-10T11:43:52;17.10;99.90
22532;DHT22;11432;46.924;7.114;2023-05-10T11:46:20;16.70;99.90
22532;DHT22;11432;46.924;7.114;2023-05-10T11:48:47;17.70;99.90
22532;DHT22;11432;46.924;7.114;2023-05-10T11:51:15;18.20;99.90
22532;DHT22;11432;46.924;7.114;2023-05-10T11:53:40;18.40;99.90
22532;DHT22;11432;46.924;7.114;2023-05-10T11:56:07;18.50;99.90
22532;DHT22;11432;46.924;7.114;2023-05-10T11:58:34;18.20;99.90
22532;DHT22;11432;46.924;7.114;2023-05-10T12:01:00;17.60;99.90
22532;DHT22;11432;46.924;7.114;2023-05-10T12:03:27;17.20;99.90
22532;DHT22;11432;46.924;7.114;2023-05-10T12:05:54;16.70;99.90
22532;DHT22;11432;46.924;7.114;2023-05-10T12:08:23;16.50;99.90
22532;DHT22;11432;46.924;7.114;2023-05-10T12:10:50;16.40;99.90
22532;DHT22;11432;46.924;7.114;2023-05-10T12:13:16;16.20;99.90
22532;DHT22;11432;46.924;7.114;2023-05-10T12:15:43;16.00;99.90
22532;DHT22;11432;46.924;7.114;2023-05-10T12:18:09;15.90;99.90
22532;DHT22;11432;46.924;7.114;2023-05-10T12:20:36;15.90;99.90
22532;DHT22;11432;46.924;7.114;2023-05-10T12:23:02;16.00;99.90
22532;DHT22;11432;46.924;7.114;2023-05-10T12:25:33;15.90;99.90
22532;DHT22;11432;46.924;7.114;2023-05-10T12:28:00;16.00;99.90
22532;DHT22;11432;46.924;7.114;2023-05-10T12:30:29;17.60;99.90
22532;DHT22;11432;46.924;7.114;2023-05-10T12:33:15;17.60;99.90
22532;DHT22;11432;46.924;7.114;2023-05-10T12:35:53;17.40;99.90
22532;DHT22;11432;46.924;7.114;2023-05-10T12:38:36;17.80;99.90
22532;DHT22;11432;46.924;7.114;2023-05-10T12:41:08;17.30;99.90
22532;DHT22;11432;46.924;7.114;2023-05-10T12:43:35;16.70;99.90
22532;DHT22;11432;46.924;7.114;2023-05-10T12:46:12;16.50;99.90
22532;DHT22;11432;46.924;7.114;2023-05-10T12:48:38;16.80;99.90
22532;DHT22;11432;46.924;7.114;2023-05-10T12:51:05;17.40;99.90
22532;DHT22;11432;46.924;7.114;2023-05-10T12:53:31;17.00;99.90
22532;DHT22;11432;46.924;7.114;2023-05-10T12:55:57;16.70;99.90
22532;DHT22;11432;46.924;7.114;2023-05-10T12:58:22;16.70;99.90
22532;DHT22;11432;46.924;7.114;2023-05-10T13:00:48;18.30;99.90
22532;DHT22;11432;46.924;7.114;2023-05-10T13:03:14;20.00;99.90
22532;DHT22;11432;46.924;7.114;2023-05-10T13:05:41;19.80;99.70
22532;DHT22;11432;46.924;7.114;2023-05-10T13:08:06;20.50;99.50
22532;DHT22;11432;46.924;7.114;2023-05-10T13:10:32;20.60;96.20
22532;DHT22;11432;46.924;7.114;2023-05-10T13:12:58;20.00;98.50
22532;DHT22;11432;46.924;7.114;2023-05-10T13:15:24;20.10;96.20
22532;DHT22;11432;46.924;7.114;2023-05-10T13:17:50;19.40;97.60
22532;DHT22;11432;46.924;7.114;2023-05-10T13:20:15;18.70;99.70
22532;DHT22;11432;46.924;7.114;2023-05-10T13:22:45;19.80;99.90
22532;DHT22;11432;46.924;7.114;2023-05-10T13:25:11;20.50;94.60
22532;DHT22;11432;46.924;7.114;2023-05-10T13:27:38;20.80;93.70
22532;DHT22;11432;46.924;7.114;2023-05-10T13:30:05;20.90;94.80
22532;DHT22;11432;46.924;7.114;2023-05-10T13:32:31;21.20;92.70
22532;DHT22;11432;46.924;7.114;2023-05-10T13:34:56;21.70;91.30
22532;DHT22;11432;46.924;7.114;2023-05-10T13:37:22;21.10;85.10
22532;DHT22;11432;46.924;7.114;2023-05-10T13:39:48;21.60;83.00
22532;DHT22;11432;46.924;7.114;2023-05-10T13:42:14;19.50;90.60
22532;DHT22;11432;46.924;7.114;2023-05-10T13:44:39;20.90;90.00
22532;DHT22;11432;46.924;7.114;2023-05-10T13:47:05;21.00;83.10
22532;DHT22;11432;46.924;7.114;2023-05-10T13:49:31;19.10;90.10
22532;DHT22;11432;46.924;7.114;2023-05-10T13:51:57;18.00;94.30
22532;DHT22;11432;46.924;7.114;2023-05-10T13:54:23;18.90;92.50
22532;DHT22;11432;46.924;7.114;2023-05-10T13:56:49;20.50;91.10
22532;DHT22;11432;46.924;7.114;2023-05-10T13:59:14;21.20;88.50
22532;DHT22;11432;46.924;7.114;2023-05-10T14:01:41;21.70;87.50
22532;DHT22;11432;46.924;7.114;2023-05-10T14:04:08;22.10;84.90
22532;DHT22;11432;46.924;7.114;2023-05-10T14:06:36;22.00;87.40
22532;DHT22;11432;46.924;7.114;2023-05-10T14:09:02;22.20;85.10
22532;DHT22;11432;46.924;7.114;2023-05-10T14:11:28;21.70;81.20
22532;DHT22;11432;46.924;7.114;2023-05-10T14:13:54;21.90;82.00
22532;DHT22;11432;46.924;7.114;2023-05-10T14:16:20;21.90;83.70
22532;DHT22;11432;46.924;7.114;2023-05-10T14:18:46;22.00;78.20
22532;DHT22;11432;46.924;7.114;2023-05-10T14:21:12;22.40;77.80
22532;DHT22;11432;46.924;7.114;2023-05-10T14:23:37;21.90;77.60
22532;DHT22;11432;46.924;7.114;2023-05-10T14:26:03;22.20;77.50
22532;DHT22;11432;46.924;7.114;2023-05-10T14:28:29;22.00;81.90
22532;DHT22;11432;46.924;7.114;2023-05-10T14:30:55;22.50;80.30
22532;DHT22;11432;46.924;7.114;2023-05-10T14:33:20;20.90;81.80
22532;DHT22;11432;46.924;7.114;2023-05-10T14:35:46;20.20;85.50
22532;DHT22;11432;46.924;7.114;2023-05-10T14:38:12;19.60;90.70
22532;DHT22;11432;46.924;7.114;2023-05-10T14:40:38;20.10;86.70
22532;DHT22;11432;46.924;7.114;2023-05-10T14:43:04;21.20;84.80
22532;DHT22;11432;46.924;7.114;2023-05-10T14:45:29;20.90;80.80
22532;DHT22;11432;46.924;7.114;2023-05-10T14:47:55;22.10;83.40
22532;DHT22;11432;46.924;7.114;2023-05-10T14:50:21;21.40;87.10
22532;DHT22;11432;46.924;7.114;2023-05-10T14:52:46;19.20;92.90
22532;DHT22;11432;46.924;7.114;2023-05-10T14:55:12;18.70;93.30
22532;DHT22;11432;46.924;7.114;2023-05-10T14:57:38;18.30;95.50
22532;DHT22;11432;46.924;7.114;2023-05-10T15:00:04;18.70;95.80
22532;DHT22;11432;46.924;7.114;2023-05-10T15:02:31;20.00;92.70
22532;DHT22;11432;46.924;7.114;2023-05-10T15:04:57;20.70;91.70
22532;DHT22;11432;46.924;7.114;2023-05-10T15:07:23;21.20;90.70
22532;DHT22;11432;46.924;7.114;2023-05-10T15:09:49;21.30;91.80
22532;DHT22;11432;46.924;7.114;2023-05-10T15:12:15;21.30;89.40
22532;DHT22;11432;46.924;7.114;2023-05-10T15:14:41;21.40;90.10
22532;DHT22;11432;46.924;7.114;2023-05-10T15:17:06;21.20;88.50
22532;DHT22;11432;46.924;7.114;2023-05-10T15:19:32;20.80;90.40
22532;DHT22;11432;46.924;7.114;2023-05-10T15:21:58;20.70;90.90
22532;DHT22;11432;46.924;7.114;2023-05-10T15:24:24;19.70;91.80
22532;DHT22;11432;46.924;7.114;2023-05-10T15:26:50;18.90;95.00
22532;DHT22;11432;46.924;7.114;2023-05-10T15:29:15;18.00;96.60
22532;DHT22;11432;46.924;7.114;2023-05-10T15:31:47;17.70;97.10
22532;DHT22;11432;46.924;7.114;2023-05-10T15:34:14;19.20;96.60
22532;DHT22;11432;46.924;7.114;2023-05-10T15:36:39;21.50;92.70
22532;DHT22;11432;46.924;7.114;2023-05-10T15:39:05;22.20;86.30
22532;DHT22;11432;46.924;7.114;2023-05-10T15:41:31;20.80;90.50
22532;DHT22;11432;46.924;7.114;2023-05-10T15:43:57;20.90;89.80
22532;DHT22;11432;46.924;7.114;2023-05-10T15:46:25;20.20;90.30
22532;DHT22;11432;46.924;7.114;2023-05-10T15:48:51;20.10;91.60
22532;DHT22;11432;46.924;7.114;2023-05-10T15:51:17;21.40;89.50
22532;DHT22;11432;46.924;7.114;2023-05-10T15:53:44;22.20;86.20
22532;DHT22;11432;46.924;7.114;2023-05-10T15:56:09;22.60;82.60
22532;DHT22;11432;46.924;7.114;2023-05-10T15:58:37;22.60;77.60
22532;DHT22;11432;46.924;7.114;2023-05-10T16:01:02;20.60;84.70
22532;DHT22;11432;46.924;7.114;2023-05-10T16:03:30;20.30;89.90
22532;DHT22;11432;46.924;7.114;2023-05-10T16:05:55;19.00;90.50